Caribbean Princess — ZCDG8 — position and weather

sailwx.info

Track history (hours):
 
Tides and Currents Weather Stations Pressure Air Temp Water Temp Dewpoint Dewpoint Depression Visibility Wind Speed Wind Dir Waves Ship Positions

Caribbean Princess

Operator: Princess Cruises

Last reported at 2020-Jan-15 23:22 UTC. Time now 2020-Jan-19 16:33 UTC.
Position N 18°56' W 081°14'.

Type: Passenger vessel. MMSI: 310423000.

Date/timePositionNaut miles runAvg speedWind from/ knotsBaromVisibWave heightAir tempDewpointWater temp
2020-Jan-15 23:22N 18°56' W 081°14'1618.3
2020-Jan-15 22:30N 19°10' W 081°22'9 3.4
2020-Jan-15 20:00N 19°18' W 081°24'0 0.1
2020-Jan-15 19:30N 19°18' W 081°24'0 0.0
2020-Jan-15 18:00N 19°18' W 081°24'0 0.0
2020-Jan-15 14:00N 19°18' W 081°24'0 0.0
2020-Jan-15 12:30N 19°18' W 081°24'5 4.6
2020-Jan-15 11:30N 19°20' W 081°28'36410.5
2020-Jan-14 00:46N 25°15' W 080°04'5111.9
2020-Jan-13 20:29N 26°06' W 080°07'0 0.0
2020-Jan-13 17:59N 26°06' W 080°07'0 0.0
2020-Jan-13 16:59N 26°06' W 080°07'0 0.0
2020-Jan-13 11:59N 26°06' W 080°07'0 0.2
2020-Jan-13 11:00N 26°06' W 080°07'3511.8
2020-Jan-13 08:00N 25°32' W 079°57'38111.3
2020-Jan-11 22:11N 19°20' W 081°26'3 1.7
2020-Jan-11 20:32N 19°18' W 081°23'0 0.0
2020-Jan-11 16:55N 19°18' W 081°23'0 0.0
2020-Jan-11 15:50N 19°18' W 081°23'10 2.1
2020-Jan-11 10:59N 19°08' W 081°26'  
Track history (hours):
 
Tides and Currents Weather Stations Pressure Air Temp Water Temp Dewpoint Dewpoint Depression Visibility Wind Speed Wind Dir Waves Ship Positions

Caribbean Princess

Operator: Princess Cruises

Last reported at 2020-Jan-15 23:22 UTC. Time now 2020-Jan-19 16:33 UTC.
Position N 18°56' W 081°14'.

Type: Passenger vessel. MMSI: 310423000.

Date/timePositionNaut miles runAvg speedWind from/ knotsBaromVisibWave heightAir tempDewpointWater temp
2020-Jan-15 23:22N 18°56' W 081°14'1618.3
2020-Jan-15 22:30N 19°10' W 081°22'9 3.4
2020-Jan-15 20:00N 19°18' W 081°24'0 0.1
2020-Jan-15 19:30N 19°18' W 081°24'0 0.0
2020-Jan-15 18:00N 19°18' W 081°24'0 0.0
2020-Jan-15 14:00N 19°18' W 081°24'0 0.0
2020-Jan-15 12:30N 19°18' W 081°24'5 4.6
2020-Jan-15 11:30N 19°20' W 081°28'36410.5
2020-Jan-14 00:46N 25°15' W 080°04'5111.9
2020-Jan-13 20:29N 26°06' W 080°07'0 0.0
2020-Jan-13 17:59N 26°06' W 080°07'0 0.0
2020-Jan-13 16:59N 26°06' W 080°07'0 0.0
2020-Jan-13 11:59N 26°06' W 080°07'0 0.2
2020-Jan-13 11:00N 26°06' W 080°07'3511.8
2020-Jan-13 08:00N 25°32' W 079°57'38111.3
2020-Jan-11 22:11N 19°20' W 081°26'3 1.7
2020-Jan-11 20:32N 19°18' W 081°23'0 0.0
2020-Jan-11 16:55N 19°18' W 081°23'0 0.0
2020-Jan-11 15:50N 19°18' W 081°23'10 2.1
2020-Jan-11 10:59N 19°08' W 081°26'  

Dump ship's entire track history